Time;durP1;ratioP1;P1;durP2;ratioP2;P2;SDS_P1;SDS_P2;PMS_P1;PMS_P2;Temp;Humidity;BMP_temperature;BMP_pressure;BME280_temperature;BME280_humidity;BME280_pressure;Samples;Min_cycle;Max_cycle;Signal;HPM_P1;HPM_P2
2022/12/28 00:01:39;;;;;;;10.20;3.03;;;6.20;83.80;;;;;;5049495;28;20049;-81
2022/12/28 00:04:08;;;;;;;7.68;3.10;;;6.20;83.90;;;;;;5048775;28;20057;-80
2022/12/28 00:06:35;;;;;;;8.98;3.30;;;6.20;84.20;;;;;;5049281;28;20131;-81
2022/12/28 00:09:03;;;;;;;7.03;3.20;;;6.20;84.30;;;;;;5060769;28;20150;-79
2022/12/28 00:11:30;;;;;;;7.28;2.50;;;6.20;84.40;;;;;;5053411;28;21402;-81
2022/12/28 00:13:59;;;;;;;6.85;2.22;;;6.20;84.40;;;;;;5053314;28;20056;-80
2022/12/28 00:16:28;;;;;;;8.05;3.08;;;6.10;84.50;;;;;;5051937;28;20613;-80
2022/12/28 00:18:57;;;;;;;8.57;2.80;;;6.10;84.80;;;;;;5040474;28;20055;-81
2022/12/28 00:21:26;;;;;;;9.27;3.40;;;6.10;84.70;;;;;;5051726;28;20051;-79
2022/12/28 00:23:54;;;;;;;10.05;3.67;;;6.10;85.10;;;;;;5053539;28;20307;-80
2022/12/28 00:26:21;;;;;;;6.50;2.05;;;6.10;85.20;;;;;;5053218;28;20065;-80
2022/12/28 00:28:49;;;;;;;9.43;3.45;;;6.10;85.40;;;;;;5053052;28;20037;-80
2022/12/28 00:31:16;;;;;;;7.05;3.42;;;6.10;85.50;;;;;;5053209;28;20487;-79
2022/12/28 00:33:43;;;;;;;10.20;2.57;;;6.10;85.70;;;;;;5051884;28;20599;-80
2022/12/28 00:36:14;;;;;;;7.05;2.72;;;6.10;85.50;;;;;;5036550;28;20257;-81
2022/12/28 00:38:44;;;;;;;7.97;2.58;;;6.10;85.70;;;;;;5053491;28;20052;-82
2022/12/28 00:41:12;;;;;;;8.70;2.50;;;6.10;85.80;;;;;;5051345;22;20741;-80
2022/12/28 00:43:39;;;;;;;6.95;2.58;;;6.10;85.90;;;;;;5046713;28;20581;-80
2022/12/28 00:46:06;;;;;;;7.40;2.90;;;6.00;86.10;;;;;;5049216;28;20093;-81
2022/12/28 00:48:34;;;;;;;6.68;2.67;;;6.10;86.20;;;;;;5051992;28;20256;-81
2022/12/28 00:51:02;;;;;;;7.90;2.75;;;6.00;86.20;;;;;;5051881;28;20130;-81
2022/12/28 00:53:29;;;;;;;7.82;3.10;;;6.00;86.50;;;;;;5033526;28;20048;-80
2022/12/28 00:56:06;;;;;;;9.13;3.05;;;6.00;86.50;;;;;;5052175;28;21011;-79
2022/12/28 00:58:34;;;;;;;6.87;2.63;;;6.00;86.60;;;;;;5047302;28;20140;-81
2022/12/28 01:01:01;;;;;;;8.77;3.33;;;6.00;86.60;;;;;;5050953;28;20287;-79
2022/12/28 01:03:28;;;;;;;6.15;3.10;;;6.00;86.70;;;;;;5031645;28;20115;-81
2022/12/28 01:05:55;;;;;;;6.78;2.58;;;6.00;86.80;;;;;;5045544;28;20053;-81
2022/12/28 01:08:23;;;;;;;6.13;2.60;;;6.00;86.70;;;;;;5027663;28;20128;-81
2022/12/28 01:10:50;;;;;;;9.40;2.90;;;6.00;87.00;;;;;;5034059;28;20069;-81
2022/12/28 01:13:18;;;;;;;6.85;2.50;;;6.10;87.10;;;;;;5052177;28;20252;-81
2022/12/28 01:15:46;;;;;;;8.02;3.20;;;6.10;87.00;;;;;;5034304;28;20059;-81
2022/12/28 01:18:15;;;;;;;8.60;2.80;;;6.10;87.00;;;;;;5036068;28;20177;-80
2022/12/28 01:20:42;;;;;;;8.60;3.20;;;6.10;87.00;;;;;;5031288;28;20578;-81
2022/12/28 01:23:10;;;;;;;8.43;3.43;;;6.10;87.00;;;;;;5036138;28;20055;-81
2022/12/28 01:25:38;;;;;;;8.15;3.42;;;6.10;87.20;;;;;;5043871;28;20280;-79
2022/12/28 01:28:05;;;;;;;8.90;3.35;;;6.10;87.20;;;;;;5035758;28;20076;-80
2022/12/28 01:30:34;;;;;;;8.82;2.60;;;6.10;87.30;;;;;;5034723;28;20065;-80
2022/12/28 01:33:01;;;;;;;10.50;3.45;;;6.10;87.30;;;;;;5034239;28;20159;-80
2022/12/28 01:35:29;;;;;;;6.90;3.13;;;6.10;87.30;;;;;;5040796;28;20057;-79
2022/12/28 01:37:57;;;;;;;9.93;4.10;;;6.10;87.40;;;;;;5069267;28;20336;-79
2022/12/28 01:40:24;;;;;;;7.25;3.15;;;6.10;87.50;;;;;;5048998;28;20143;-81
2022/12/28 01:42:51;;;;;;;9.75;2.92;;;6.20;87.50;;;;;;5051435;28;20222;-79
2022/12/28 01:45:21;;;;;;;8.65;4.10;;;6.10;87.40;;;;;;5035192;28;20041;-79
2022/12/28 01:47:53;;;;;;;6.40;2.43;;;6.20;87.60;;;;;;5032104;28;20049;-79
2022/12/28 01:50:26;;;;;;;7.63;3.05;;;6.20;87.50;;;;;;5046915;28;20269;-80
2022/12/28 01:52:57;;;;;;;8.88;3.28;;;6.20;87.60;;;;;;5033919;28;20069;-80
2022/12/28 01:55:27;;;;;;;10.98;3.45;;;6.10;87.70;;;;;;5041792;28;20415;-80
2022/12/28 01:57:58;;;;;;;8.32;3.40;;;6.20;87.80;;;;;;5034920;28;20099;-81
2022/12/28 02:00:25;;;;;;;7.90;4.07;;;6.20;87.70;;;;;;5034678;28;20053;-81
2022/12/28 02:02:57;;;;;;;8.93;3.53;;;6.30;87.60;;;;;;5045484;28;20256;-80
2022/12/28 02:05:28;;;;;;;8.02;3.38;;;6.30;87.50;;;;;;5050700;28;20572;-81
2022/12/28 02:08:02;;;;;;;5.20;1.80;;;6.30;87.50;;;;;;5051994;28;20045;-81
2022/12/28 02:10:32;;;;;;;9.23;3.75;;;6.30;87.60;;;;;;5032391;28;20057;-80
2022/12/28 02:13:00;;;;;;;10.40;3.40;;;6.30;87.70;;;;;;5035064;28;20053;-80
2022/12/28 02:15:27;;;;;;;7.20;3.40;;;6.30;87.80;;;;;;5051004;28;20399;-81
2022/12/28 02:17:57;;;;;;;5.35;2.90;;;6.30;87.70;;;;;;5051103;28;20140;-79
2022/12/28 02:20:30;;;;;;;8.20;3.03;;;6.30;87.80;;;;;;5050030;28;20131;-80
2022/12/28 02:23:23;;;;;;;9.32;4.22;;;6.30;87.90;;;;;;5029927;28;21026;-81
2022/12/28 02:26:31;;;;;;;7.60;3.43;;;6.30;88.10;;;;;;5051173;28;20068;-78
2022/12/28 02:29:30;;;;;;;8.00;3.60;;;6.30;88.40;;;;;;5029079;28;20366;-78
2022/12/28 02:32:09;;;;;;;8.48;4.43;;;6.30;88.70;;;;;;5044767;28;20045;-80
2022/12/28 02:34:46;;;;;;;7.57;3.90;;;6.30;88.90;;;;;;5033855;28;20045;-79
2022/12/28 02:37:18;;;;;;;9.73;4.60;;;6.30;89.00;;;;;;5034517;28;20509;-80
2022/12/28 02:39:51;;;;;;;9.27;3.87;;;6.30;89.00;;;;;;5034328;28;20049;-79
2022/12/28 02:42:21;;;;;;;8.63;3.53;;;6.30;89.40;;;;;;5031614;28;20279;-79
2022/12/28 02:50:21;;;;;;;5.82;2.75;;;6.30;89.70;;;;;;5034212;28;20049;-81
2022/12/28 02:53:26;;;;;;;8.50;3.97;;;6.40;89.70;;;;;;5034306;28;20069;-81
2022/12/28 02:56:06;;;;;;;8.25;2.58;;;6.40;89.80;;;;;;5003866;28;20331;-80
2022/12/28 02:59:08;;;;;;;8.70;4.32;;;6.30;89.80;;;;;;5034505;28;20049;-80
2022/12/28 03:02:08;;;;;;;7.38;3.45;;;6.40;90.00;;;;;;5055116;28;20049;-81
2022/12/28 03:04:56;;;;;;;9.05;3.95;;;6.30;90.00;;;;;;5045213;28;20106;-79
2022/12/28 03:11:00;;;;;;;8.23;2.90;;;6.40;90.20;;;;;;5021219;28;20646;-81
2022/12/28 03:13:44;;;;;;;9.05;4.63;;;6.40;90.30;;;;;;5033529;28;20500;-80
2022/12/28 03:16:20;;;;;;;9.27;4.75;;;6.50;90.50;;;;;;5064226;28;20159;-80
2022/12/28 03:32:54;;;;;;;8.82;4.88;;;6.70;90.40;;;;;;5050411;28;20403;-80
2022/12/28 03:35:28;;;;;;;9.37;5.00;;;6.70;90.50;;;;;;5030376;28;20053;-81
2022/12/28 03:38:00;;;;;;;10.90;5.00;;;6.80;90.50;;;;;;5027678;28;20288;-79
2022/12/28 03:40:35;;;;;;;8.98;5.22;;;6.80;90.50;;;;;;5030287;28;20132;-79
2022/12/28 03:45:58;;;;;;;7.07;3.47;;;6.90;90.50;;;;;;5033197;28;20050;-81
2022/12/28 03:48:27;;;;;;;6.60;3.20;;;6.90;90.40;;;;;;5049890;28;20095;-81
2022/12/28 03:50:56;;;;;;;8.25;4.30;;;6.90;90.40;;;;;;5033471;28;20279;-79
2022/12/28 03:53:26;;;;;;;7.45;4.13;;;6.90;90.60;;;;;;5056322;28;20041;-80
2022/12/28 03:56:06;;;;;;;9.23;3.92;;;6.90;90.50;;;;;;5020135;28;20525;-79
2022/12/28 03:58:34;;;;;;;8.25;3.88;;;7.00;90.50;;;;;;5026939;28;21046;-80
2022/12/28 04:01:01;;;;;;;9.60;4.10;;;7.00;90.40;;;;;;5038504;28;20053;-80
2022/12/28 04:03:28;;;;;;;7.45;3.88;;;7.00;90.60;;;;;;5032545;28;20264;-81
2022/12/28 04:05:57;;;;;;;7.90;4.18;;;7.00;90.70;;;;;;5032823;28;20045;-80
2022/12/28 04:08:25;;;;;;;8.40;3.90;;;7.00;90.70;;;;;;5047231;28;20103;-81
2022/12/28 04:10:53;;;;;;;8.05;4.30;;;7.00;90.60;;;;;;5032985;28;20057;-79
2022/12/28 04:13:20;;;;;;;7.80;4.10;;;7.00;90.90;;;;;;5049863;28;20049;-79
2022/12/28 04:15:59;;;;;;;7.20;3.65;;;7.00;90.90;;;;;;5031591;28;20645;-80
2022/12/28 04:18:27;;;;;;;6.47;3.03;;;7.00;90.90;;;;;;5032999;28;20092;-81
2022/12/28 04:20:54;;;;;;;7.72;4.28;;;7.10;90.90;;;;;;5032949;28;20164;-79
2022/12/28 04:23:23;;;;;;;7.28;3.88;;;7.10;91.00;;;;;;5032923;28;20554;-81
2022/12/28 04:25:58;;;;;;;7.37;3.77;;;7.10;91.10;;;;;;5030650;28;20049;-80
2022/12/28 04:28:26;;;;;;;7.03;3.88;;;7.20;91.10;;;;;;5033150;28;20298;-80
2022/12/28 04:31:20;;;;;;;7.22;3.60;;;7.10;91.20;;;;;;5032939;28;20053;-80
2022/12/28 04:33:56;;;;;;;6.13;3.20;;;7.20;91.20;;;;;;5031165;28;20126;-81
2022/12/28 04:36:24;;;;;;;6.65;3.28;;;7.20;91.30;;;;;;5032179;28;20049;-80
2022/12/28 04:38:58;;;;;;;6.43;3.87;;;7.20;91.40;;;;;;5031303;28;20060;-80
2022/12/28 04:41:25;;;;;;;7.75;3.72;;;7.20;91.50;;;;;;5048735;28;20260;-80
2022/12/28 04:43:55;;;;;;;6.80;3.70;;;7.20;91.50;;;;;;5048903;28;20160;-79
2022/12/28 04:46:22;;;;;;;7.00;3.78;;;7.20;91.40;;;;;;5032751;28;20056;-80
2022/12/28 04:48:49;;;;;;;6.50;3.55;;;7.20;91.50;;;;;;5042759;28;20049;-81
2022/12/28 04:51:18;;;;;;;6.30;4.10;;;7.20;91.60;;;;;;5047840;28;20530;-79
2022/12/28 04:53:48;;;;;;;6.88;3.55;;;7.30;91.50;;;;;;5032304;28;20290;-80
2022/12/28 04:56:18;;;;;;;5.82;3.15;;;7.30;91.60;;;;;;5051097;28;20045;-79
2022/12/28 04:58:46;;;;;;;6.97;4.15;;;7.30;91.60;;;;;;5052742;28;20128;-80
2022/12/28 05:01:17;;;;;;;8.10;3.70;;;7.40;91.60;;;;;;5053143;28;20056;-78
2022/12/28 05:03:46;;;;;;;6.03;3.47;;;7.40;91.60;;;;;;5071050;28;20720;-81
2022/12/28 05:06:14;;;;;;;6.90;4.20;;;7.40;91.70;;;;;;5036128;28;20343;-79
2022/12/28 05:08:42;;;;;;;6.35;3.72;;;7.40;91.70;;;;;;5050900;28;20049;-80
2022/12/28 05:11:12;;;;;;;6.90;3.42;;;7.40;91.80;;;;;;5042271;28;20057;-80
2022/12/28 05:13:40;;;;;;;6.68;3.75;;;7.40;91.80;;;;;;5032628;28;20081;-79
2022/12/28 05:16:10;;;;;;;6.70;4.60;;;7.50;91.80;;;;;;5033665;28;20096;-80
2022/12/28 05:18:38;;;;;;;6.78;4.40;;;7.50;91.80;;;;;;5035892;28;20287;-80
2022/12/28 05:21:07;;;;;;;7.35;4.15;;;7.50;91.80;;;;;;5048230;28;20115;-81
2022/12/28 05:23:36;;;;;;;6.82;4.18;;;7.50;91.90;;;;;;5032455;28;20604;-79
2022/12/28 05:26:03;;;;;;;6.80;3.70;;;7.50;91.90;;;;;;5035136;28;20041;-81
2022/12/28 05:28:30;;;;;;;7.57;4.57;;;7.60;91.90;;;;;;5034399;28;20057;-80
2022/12/28 05:31:02;;;;;;;8.10;4.70;;;7.50;91.90;;;;;;5035929;28;20386;-80
2022/12/28 05:33:29;;;;;;;7.35;4.50;;;7.50;92.10;;;;;;5051689;28;20142;-81
2022/12/28 05:35:57;;;;;;;7.10;4.47;;;7.60;92.20;;;;;;5050446;28;20135;-80
2022/12/28 05:38:24;;;;;;;8.70;4.70;;;7.60;92.30;;;;;;5051254;28;20106;-79
2022/12/28 05:40:51;;;;;;;7.70;3.57;;;7.70;92.30;;;;;;5051837;28;20864;-80
2022/12/28 05:43:18;;;;;;;6.40;4.15;;;7.80;92.20;;;;;;5047773;28;20253;-80
2022/12/28 05:45:45;;;;;;;8.30;5.80;;;7.80;92.30;;;;;;5051162;28;20049;-80
2022/12/28 05:48:13;;;;;;;6.38;4.22;;;7.80;92.40;;;;;;5051421;28;20057;-80
2022/12/28 05:50:40;;;;;;;9.48;5.68;;;7.80;92.30;;;;;;5051846;28;20061;-79
2022/12/28 05:53:07;;;;;;;8.10;5.77;;;7.80;92.50;;;;;;5051587;28;20152;-79
2022/12/28 05:55:34;;;;;;;8.25;6.20;;;7.80;92.50;;;;;;5035159;28;20382;-79
2022/12/28 05:58:02;;;;;;;8.63;5.75;;;7.90;92.50;;;;;;5047636;28;20523;-80
2022/12/28 06:00:29;;;;;;;8.73;4.60;;;8.00;92.40;;;;;;5018542;28;20160;-80
2022/12/28 06:02:56;;;;;;;8.27;5.70;;;8.00;92.30;;;;;;5038009;28;20687;-81
2022/12/28 06:05:26;;;;;;;8.83;6.50;;;8.00;92.30;;;;;;5051087;28;20081;-80
2022/12/28 06:07:53;;;;;;;9.13;5.50;;;8.00;92.40;;;;;;5051294;28;20686;-80
2022/12/28 06:10:20;;;;;;;9.52;5.68;;;8.00;92.20;;;;;;5051355;28;20064;-80
2022/12/28 06:12:47;;;;;;;11.38;6.53;;;8.10;92.40;;;;;;5051207;28;20055;-80
2022/12/28 06:15:14;;;;;;;10.05;6.05;;;8.10;92.30;;;;;;5034723;28;20050;-80
2022/12/28 06:17:41;;;;;;;11.33;5.50;;;8.10;92.40;;;;;;5051313;28;20083;-80
2022/12/28 06:20:09;;;;;;;9.52;6.10;;;8.10;92.30;;;;;;5051263;28;20792;-80
2022/12/28 06:22:38;;;;;;;9.55;5.05;;;8.10;92.30;;;;;;5049898;28;20060;-81
2022/12/28 06:25:06;;;;;;;10.52;6.63;;;8.10;92.50;;;;;;5050926;28;20422;-81
2022/12/28 06:27:33;;;;;;;8.80;7.00;;;8.20;92.40;;;;;;5047736;28;20044;-80
2022/12/28 06:30:00;;;;;;;10.87;6.90;;;8.20;92.50;;;;;;5051216;28;20152;-80
2022/12/28 06:32:27;;;;;;;9.05;6.15;;;8.30;92.20;;;;;;5034571;28;20303;-80
2022/12/28 06:34:54;;;;;;;8.77;6.03;;;8.30;92.20;;;;;;5051036;28;20080;-79
2022/12/28 06:37:21;;;;;;;9.63;6.32;;;8.30;92.20;;;;;;5034686;28;20160;-79
2022/12/28 06:39:50;;;;;;;8.48;5.82;;;8.40;92.30;;;;;;5047993;28;20065;-79
2022/12/28 06:42:17;;;;;;;9.10;5.63;;;8.40;92.20;;;;;;5051039;28;20227;-80
2022/12/28 06:44:44;;;;;;;8.95;6.45;;;8.40;92.30;;;;;;5050663;28;20681;-79
2022/12/28 06:47:11;;;;;;;9.07;5.75;;;8.40;92.40;;;;;;5050763;28;20103;-80
2022/12/28 06:49:38;;;;;;;10.00;6.88;;;8.50;92.30;;;;;;5050922;28;20501;-79
2022/12/28 06:52:05;;;;;;;9.27;6.30;;;8.50;92.30;;;;;;5050661;28;20052;-79
2022/12/28 06:54:32;;;;;;;9.40;6.13;;;8.50;92.20;;;;;;5050014;28;20169;-80
2022/12/28 06:57:01;;;;;;;9.82;6.78;;;8.60;92.10;;;;;;5050100;28;21112;-79
2022/12/28 06:59:28;;;;;;;9.10;6.40;;;8.60;92.10;;;;;;5049112;28;20061;-79
2022/12/28 07:01:55;;;;;;;9.40;6.38;;;8.60;92.10;;;;;;5063656;28;20057;-80
2022/12/28 07:04:22;;;;;;;8.95;5.78;;;8.60;92.10;;;;;;5056928;28;20155;-80
2022/12/28 07:06:49;;;;;;;9.63;6.77;;;8.60;92.20;;;;;;5053034;28;20049;-78
2022/12/28 07:09:16;;;;;;;10.38;5.93;;;8.60;92.20;;;;;;5066365;28;20256;-81
2022/12/28 07:11:44;;;;;;;9.23;5.03;;;8.60;92.30;;;;;;5032865;28;20132;-81
2022/12/28 07:14:12;;;;;;;9.50;5.88;;;8.60;92.20;;;;;;5061609;28;20900;-78
2022/12/28 07:16:40;;;;;;;9.15;5.93;;;8.60;92.20;;;;;;5046639;28;20560;-79
2022/12/28 07:19:08;;;;;;;10.63;6.67;;;8.60;92.20;;;;;;5046306;28;20058;-79
2022/12/28 07:21:36;;;;;;;11.13;7.57;;;8.60;92.30;;;;;;5040198;28;20311;-79
2022/12/28 07:24:05;;;;;;;10.98;6.28;;;8.60;92.30;;;;;;5071003;28;20525;-80
2022/12/28 07:26:34;;;;;;;11.18;7.05;;;8.70;92.10;;;;;;5048754;28;20057;-80
2022/12/28 07:29:04;;;;;;;10.90;6.75;;;8.70;92.00;;;;;;5056525;28;20210;-79
2022/12/28 07:31:36;;;;;;;8.87;6.37;;;8.80;91.90;;;;;;5051009;28;20122;-78
2022/12/28 07:34:03;;;;;;;11.95;6.85;;;8.80;91.80;;;;;;5047724;28;20345;-79
2022/12/28 07:36:32;;;;;;;11.27;8.05;;;8.80;91.80;;;;;;5054815;28;20049;-78
2022/12/28 07:38:59;;;;;;;9.52;6.53;;;8.80;91.80;;;;;;5049736;28;20586;-78
2022/12/28 07:41:29;;;;;;;10.15;7.55;;;8.90;91.60;;;;;;5055942;28;20044;-78
2022/12/28 07:44:01;;;;;;;10.83;7.93;;;8.90;91.60;;;;;;5053705;28;20056;-77
2022/12/28 07:46:31;;;;;;;11.90;7.00;;;8.90;91.60;;;;;;5080674;28;20318;-79
2022/12/28 07:49:00;;;;;;;8.90;5.80;;;9.00;91.40;;;;;;5055186;28;20056;-78
2022/12/28 07:51:29;;;;;;;10.00;6.50;;;8.90;91.40;;;;;;5047929;28;21075;-77
2022/12/28 07:53:57;;;;;;;9.88;5.97;;;8.90;91.60;;;;;;5047838;28;20063;-78
2022/12/28 07:56:26;;;;;;;9.83;6.63;;;8.90;91.60;;;;;;5053320;28;20104;-78
2022/12/28 07:58:56;;;;;;;11.15;7.68;;;8.90;91.60;;;;;;5032820;28;20328;-78
2022/12/28 08:01:26;;;;;;;11.65;7.00;;;9.00;91.60;;;;;;5057006;28;20057;-77
2022/12/28 08:03:54;;;;;;;11.40;7.18;;;9.00;91.50;;;;;;5067717;28;20083;-80
2022/12/28 08:06:25;;;;;;;8.77;5.07;;;9.00;91.40;;;;;;5066084;28;20955;-78
2022/12/28 08:08:53;;;;;;;10.70;6.90;;;9.00;91.30;;;;;;5067230;28;20520;-79
2022/12/28 08:11:22;;;;;;;8.52;5.82;;;9.00;91.40;;;;;;5064238;28;20296;-80
2022/12/28 08:13:51;;;;;;;10.57;6.82;;;9.00;91.30;;;;;;5065474;28;20047;-81
2022/12/28 08:16:20;;;;;;;10.65;6.60;;;9.00;91.20;;;;;;5031419;28;20053;-80
2022/12/28 08:18:49;;;;;;;10.18;6.70;;;9.00;91.40;;;;;;5028054;28;20054;-82
2022/12/28 08:21:17;;;;;;;7.80;5.50;;;9.00;91.30;;;;;;5048701;28;20138;-79
2022/12/28 08:23:47;;;;;;;11.45;6.78;;;9.00;91.40;;;;;;5048115;28;20264;-80
2022/12/28 08:26:16;;;;;;;10.50;6.78;;;9.10;91.30;;;;;;5025069;28;20055;-78
2022/12/28 08:28:45;;;;;;;9.40;6.43;;;9.00;91.40;;;;;;5045285;28;20107;-80
2022/12/28 08:31:15;;;;;;;9.20;6.13;;;9.10;91.30;;;;;;5061863;28;20080;-80
2022/12/28 08:33:43;;;;;;;7.57;4.60;;;9.20;91.40;;;;;;5079601;28;20148;-78
2022/12/28 08:36:10;;;;;;;7.65;4.90;;;9.20;91.30;;;;;;5058456;28;20288;-80
2022/12/28 08:38:38;;;;;;;9.27;5.45;;;9.10;91.50;;;;;;5055767;28;20049;-80
2022/12/28 08:41:11;;;;;;;8.13;4.57;;;9.10;91.60;;;;;;5051935;28;20081;-80
2022/12/28 08:43:38;;;;;;;7.60;5.47;;;9.10;91.70;;;;;;5058462;28;20050;-81
2022/12/28 08:46:08;;;;;;;6.83;4.07;;;9.10;91.80;;;;;;5056644;28;20075;-82
2022/12/28 08:48:35;;;;;;;7.90;5.60;;;9.10;91.90;;;;;;5051621;28;20331;-79
2022/12/28 08:51:05;;;;;;;8.50;5.47;;;9.10;92.10;;;;;;5052348;28;20103;-81
2022/12/28 08:53:32;;;;;;;7.93;5.38;;;9.10;92.00;;;;;;5049742;28;20132;-82
2022/12/28 08:56:04;;;;;;;8.63;5.45;;;9.10;92.00;;;;;;5047071;28;20503;-85
2022/12/28 08:58:32;;;;;;;9.33;5.50;;;9.10;92.10;;;;;;5035093;28;20042;-81
2022/12/28 09:01:06;;;;;;;9.82;6.22;;;9.10;92.00;;;;;;5032698;28;20294;-81
2022/12/28 09:03:35;;;;;;;7.78;4.90;;;9.20;92.10;;;;;;5030507;28;20049;-84
2022/12/28 09:06:03;;;;;;;9.73;5.30;;;9.10;92.10;;;;;;5050405;28;20052;-82
2022/12/28 09:08:30;;;;;;;8.13;5.32;;;9.20;92.10;;;;;;5016183;28;20077;-81
2022/12/28 09:11:00;;;;;;;7.17;4.70;;;9.20;92.10;;;;;;5029642;28;20162;-82
2022/12/28 09:13:27;;;;;;;6.95;4.65;;;9.20;92.10;;;;;;5034400;28;20253;-82
2022/12/28 09:16:00;;;;;;;8.73;4.85;;;9.20;92.00;;;;;;5024305;28;20128;-81
2022/12/28 09:18:27;;;;;;;7.63;5.22;;;9.20;92.10;;;;;;5015799;28;20152;-82
2022/12/28 09:20:55;;;;;;;7.32;4.22;;;9.20;92.00;;;;;;5041001;28;20045;-81
2022/12/28 09:23:22;;;;;;;6.40;4.13;;;9.20;92.00;;;;;;5035212;28;20045;-83
2022/12/28 09:25:49;;;;;;;6.95;3.63;;;9.20;91.90;;;;;;5052257;28;20402;-81
2022/12/28 09:28:17;;;;;;;7.78;4.70;;;9.30;91.90;;;;;;5051856;28;20053;-83
2022/12/28 09:30:44;;;;;;;6.85;4.53;;;9.30;91.90;;;;;;5046525;28;20588;-81
2022/12/28 09:35:59;;;;;;;8.70;4.07;;;9.40;92.00;;;;;;5017315;28;20060;-82
2022/12/28 09:38:26;;;;;;;8.02;4.22;;;9.40;91.80;;;;;;5043813;28;20388;-81
2022/12/28 09:40:53;;;;;;;6.45;3.92;;;9.40;91.70;;;;;;5050165;28;20224;-82
2022/12/28 09:43:21;;;;;;;7.47;4.35;;;9.40;91.70;;;;;;5050607;28;20045;-80
2022/12/28 09:45:48;;;;;;;7.60;3.90;;;9.40;91.70;;;;;;5051398;28;20080;-83
2022/12/28 09:48:21;;;;;;;8.47;4.70;;;9.40;91.50;;;;;;5032606;28;20052;-81
2022/12/28 09:50:49;;;;;;;7.90;5.00;;;9.40;91.50;;;;;;5041289;28;20280;-82
2022/12/28 09:53:28;;;;;;;7.47;5.00;;;9.40;91.60;;;;;;5032098;28;20132;-81
2022/12/28 09:56:00;;;;;;;7.43;5.18;;;9.40;91.60;;;;;;5023651;28;20052;-81
2022/12/28 09:58:30;;;;;;;7.32;4.40;;;9.50;91.50;;;;;;5044979;28;20095;-82
2022/12/28 10:00:59;;;;;;;8.10;4.13;;;9.50;91.50;;;;;;5045202;28;20056;-84
2022/12/28 10:03:34;;;;;;;8.27;5.47;;;9.40;91.50;;;;;;5039570;28;20686;-82
2022/12/28 10:06:03;;;;;;;7.38;4.60;;;9.50;91.50;;;;;;5048260;28;20174;-81
2022/12/28 10:08:30;;;;;;;6.97;4.03;;;9.40;91.50;;;;;;5031984;28;20091;-82
2022/12/28 10:11:01;;;;;;;6.57;4.28;;;9.50;91.40;;;;;;5066015;28;20165;-83
2022/12/28 10:13:36;;;;;;;7.93;4.73;;;9.50;91.50;;;;;;5024208;28;20152;-79
2022/12/28 10:16:05;;;;;;;7.88;4.57;;;9.50;91.50;;;;;;5048550;28;20841;-80
2022/12/28 10:18:36;;;;;;;6.75;3.95;;;9.50;91.60;;;;;;5044779;28;20055;-79
2022/12/28 10:21:05;;;;;;;7.35;4.57;;;9.40;91.80;;;;;;5049494;28;20049;-80
2022/12/28 10:23:35;;;;;;;7.25;4.55;;;9.50;91.60;;;;;;5053952;28;20045;-82
2022/12/28 10:26:06;;;;;;;7.37;4.67;;;9.50;91.60;;;;;;5050457;28;20049;-82
2022/12/28 10:28:44;;;;;;;7.40;4.82;;;9.50;91.70;;;;;;5060938;28;20339;-81
2022/12/28 10:31:13;;;;;;;8.25;4.95;;;9.50;91.60;;;;;;5042049;28;20669;-81
2022/12/28 10:33:49;;;;;;;7.70;4.32;;;9.50;91.60;;;;;;5068438;28;20053;-84
2022/12/28 10:36:17;;;;;;;7.85;5.10;;;9.50;91.70;;;;;;5056738;28;21020;-79
2022/12/28 10:38:50;;;;;;;7.60;5.10;;;9.50;91.70;;;;;;5043857;28;20114;-80
2022/12/28 10:41:18;;;;;;;7.65;3.28;;;9.50;91.80;;;;;;5084024;28;20346;-81
2022/12/28 10:43:49;;;;;;;7.07;4.30;;;9.50;91.70;;;;;;5065953;28;20045;-79
2022/12/28 10:46:18;;;;;;;7.90;4.70;;;9.50;91.80;;;;;;5083358;28;20199;-79
2022/12/28 10:48:51;;;;;;;7.63;4.80;;;9.50;91.80;;;;;;5051505;28;20061;-81
2022/12/28 10:51:20;;;;;;;6.57;3.87;;;9.50;91.90;;;;;;5048333;28;20238;-82
2022/12/28 10:53:50;;;;;;;6.45;4.22;;;9.50;91.90;;;;;;5043767;28;21138;-80
2022/12/28 10:56:25;;;;;;;6.85;4.25;;;9.50;91.90;;;;;;5033399;28;20049;-79
2022/12/28 10:58:54;;;;;;;6.10;3.60;;;9.50;92.10;;;;;;5046105;28;20049;-79
2022/12/28 11:01:25;;;;;;;6.53;3.22;;;9.50;92.10;;;;;;5021996;28;20045;-79
2022/12/28 11:04:04;;;;;;;5.37;3.20;;;9.40;92.20;;;;;;5034520;28;20049;-79
2022/12/28 11:06:34;;;;;;;5.45;3.08;;;9.50;92.20;;;;;;5030724;28;20282;-78
2022/12/28 11:09:15;;;;;;;6.00;3.50;;;9.50;92.20;;;;;;5047949;28;20080;-79
2022/12/28 11:11:45;;;;;;;5.50;2.92;;;9.50;92.10;;;;;;5048723;28;20156;-81
2022/12/28 11:14:17;;;;;;;6.00;2.75;;;9.50;92.00;;;;;;5030125;28;20054;-80
2022/12/28 11:16:45;;;;;;;5.90;2.90;;;9.50;92.00;;;;;;5038400;28;20044;-81
2022/12/28 11:19:13;;;;;;;4.47;2.22;;;9.50;92.00;;;;;;5047908;28;20240;-79
2022/12/28 11:21:42;;;;;;;5.13;2.67;;;9.40;92.10;;;;;;5039426;28;20077;-78
2022/12/28 11:24:13;;;;;;;4.88;2.70;;;9.50;92.20;;;;;;5041782;28;20049;-81
2022/12/28 11:26:44;;;;;;;5.63;2.35;;;9.50;92.20;;;;;;5054007;28;20045;-81
2022/12/28 11:29:13;;;;;;;5.50;2.67;;;9.40;92.10;;;;;;5045708;28;20057;-79
2022/12/28 11:31:46;;;;;;;4.93;2.63;;;9.50;92.10;;;;;;5044635;28;20274;-81
2022/12/28 11:34:19;;;;;;;5.38;2.90;;;9.40;92.20;;;;;;5049739;28;20091;-76
2022/12/28 11:36:50;;;;;;;4.78;2.53;;;9.40;92.30;;;;;;5054170;28;20148;-76
2022/12/28 11:39:42;;;;;;;4.65;2.28;;;9.50;92.20;;;;;;5063852;28;20059;-77
2022/12/28 11:42:09;;;;;;;5.00;3.00;;;9.40;92.30;;;;;;5047356;28;20041;-76
2022/12/28 11:44:53;;;;;;;4.88;2.67;;;9.40;92.30;;;;;;5056208;28;20709;-77
2022/12/28 11:47:31;;;;;;;5.18;2.63;;;9.40;92.30;;;;;;5041077;28;20962;-81
2022/12/28 11:50:31;;;;;;;5.25;3.00;;;9.50;92.30;;;;;;5026633;28;20511;-79
2022/12/28 11:53:00;;;;;;;5.50;2.65;;;9.40;92.30;;;;;;5030950;28;20107;-80
2022/12/28 11:55:46;;;;;;;4.77;2.37;;;9.50;92.30;;;;;;5049141;28;20059;-81
2022/12/28 11:58:42;;;;;;;5.10;2.22;;;9.50;92.20;;;;;;5052724;28;20292;-76
2022/12/28 12:01:11;;;;;;;4.85;2.42;;;9.40;92.30;;;;;;5034633;28;20041;-82
2022/12/28 12:04:08;;;;;;;5.18;3.00;;;9.50;92.30;;;;;;5039448;28;20139;-78
2022/12/28 12:07:22;;;;;;;5.82;2.78;;;9.40;92.30;;;;;;5050557;28;20052;-78
2022/12/28 12:10:15;;;;;;;5.17;2.80;;;9.50;92.30;;;;;;5010359;28;20502;-81
2022/12/28 12:12:51;;;;;;;5.63;2.80;;;9.50;92.10;;;;;;5035480;28;20244;-79
2022/12/28 12:15:21;;;;;;;4.82;2.95;;;9.50;92.00;;;;;;5052497;28;20064;-80
2022/12/28 12:17:52;;;;;;;5.43;2.65;;;9.50;92.00;;;;;;5047280;28;20491;-78
2022/12/28 12:20:46;;;;;;;4.80;2.80;;;9.50;92.00;;;;;;5051038;28;20119;-77
2022/12/28 12:23:24;;;;;;;4.80;2.30;;;9.60;92.00;;;;;;5059070;28;20128;-79
2022/12/28 12:25:56;;;;;;;5.20;2.83;;;9.50;92.00;;;;;;5051377;28;20411;-75
2022/12/28 12:28:35;;;;;;;4.93;2.60;;;9.50;92.10;;;;;;5053206;28;20110;-76
2022/12/28 12:31:06;;;;;;;5.20;2.53;;;9.50;92.10;;;;;;5070840;28;20060;-75
2022/12/28 12:33:36;;;;;;;5.50;3.20;;;9.50;92.00;;;;;;5071155;28;20122;-75
2022/12/28 12:36:19;;;;;;;5.20;2.60;;;9.50;92.00;;;;;;5052599;28;20171;-76
2022/12/28 12:39:13;;;;;;;5.38;2.83;;;9.50;92.10;;;;;;5049070;28;20341;-76
2022/12/28 12:41:49;;;;;;;4.50;2.60;;;9.50;92.00;;;;;;5070041;28;20103;-79
2022/12/28 12:44:33;;;;;;;4.28;2.28;;;9.50;92.10;;;;;;5046787;28;20429;-77
2022/12/28 12:47:24;;;;;;;4.22;2.25;;;9.50;92.10;;;;;;5039885;28;20942;-78
2022/12/28 12:50:12;;;;;;;4.97;2.10;;;9.50;92.00;;;;;;5034923;28;20148;-77
2022/12/28 12:52:42;;;;;;;5.32;1.98;;;9.40;92.10;;;;;;5068040;28;20769;-77
2022/12/28 12:55:31;;;;;;;4.35;2.00;;;9.50;92.20;;;;;;5064260;28;20123;-78
2022/12/28 12:58:05;;;;;;;3.88;2.00;;;9.50;92.20;;;;;;5032422;28;20041;-77
2022/12/28 13:00:42;;;;;;;3.92;1.80;;;9.50;92.00;;;;;;5047119;28;20042;-77
2022/12/28 13:03:22;;;;;;;5.20;2.63;;;9.50;91.70;;;;;;5036715;28;20068;-77
2022/12/28 13:05:52;;;;;;;3.58;1.75;;;9.50;91.80;;;;;;5048955;28;20819;-76
2022/12/28 13:08:24;;;;;;;3.88;1.50;;;9.50;91.90;;;;;;5064485;28;20140;-77
2022/12/28 13:10:52;;;;;;;4.22;1.73;;;9.50;91.70;;;;;;5040701;28;20171;-80
2022/12/28 13:13:33;;;;;;;4.07;1.60;;;9.50;91.60;;;;;;5041808;28;20052;-78
2022/12/28 13:16:03;;;;;;;3.90;1.47;;;9.50;91.50;;;;;;5044488;28;20052;-78
2022/12/28 13:18:31;;;;;;;3.75;1.42;;;9.50;91.50;;;;;;5045989;28;20245;-78
2022/12/28 13:21:00;;;;;;;4.47;1.60;;;9.50;91.50;;;;;;5037180;28;20527;-76
2022/12/28 13:23:29;;;;;;;3.22;1.27;;;9.50;91.40;;;;;;5044650;28;20041;-81
2022/12/28 13:25:59;;;;;;;3.97;1.48;;;9.50;91.30;;;;;;5049610;28;20909;-79
2022/12/28 13:28:31;;;;;;;4.50;1.73;;;9.50;91.20;;;;;;5046813;28;20060;-78
2022/12/28 13:31:03;;;;;;;3.17;1.55;;;9.50;91.20;;;;;;5048614;28;20311;-76
2022/12/28 13:33:31;;;;;;;3.60;1.50;;;9.60;91.00;;;;;;5046550;28;20076;-78
2022/12/28 13:36:10;;;;;;;3.40;1.55;;;9.50;91.00;;;;;;5050920;28;20061;-77
2022/12/28 13:38:37;;;;;;;3.05;1.30;;;9.50;91.00;;;;;;5050937;28;20126;-79
2022/12/28 13:41:11;;;;;;;4.17;1.43;;;9.50;90.80;;;;;;5060140;28;20148;-78
2022/12/28 13:44:08;;;;;;;3.15;1.10;;;9.60;90.70;;;;;;5046012;28;20385;-76
2022/12/28 13:46:37;;;;;;;3.20;1.20;;;9.60;90.30;;;;;;5061672;28;20849;-78